sensor_id;sensor_type;location;lat;lon;timestamp;P1;durP1;ratioP1;P2;durP2;ratioP2
44228;SDS011;29904;51.058;5.378;2022-12-10T00:01:26;48.03;;;24.30;;
44228;SDS011;29904;51.058;5.378;2022-12-10T00:03:53;45.03;;;23.20;;
44228;SDS011;29904;51.058;5.378;2022-12-10T00:06:20;44.70;;;23.00;;
44228;SDS011;29904;51.058;5.378;2022-12-10T00:08:50;44.97;;;23.88;;
44228;SDS011;29904;51.058;5.378;2022-12-10T00:11:16;44.63;;;23.30;;
44228;SDS011;29904;51.058;5.378;2022-12-10T00:13:44;46.55;;;24.05;;
44228;SDS011;29904;51.058;5.378;2022-12-10T00:16:11;45.40;;;22.85;;
44228;SDS011;29904;51.058;5.378;2022-12-10T00:18:38;49.97;;;24.52;;
44228;SDS011;29904;51.058;5.378;2022-12-10T00:21:08;45.92;;;23.10;;
44228;SDS011;29904;51.058;5.378;2022-12-10T00:23:35;44.42;;;22.42;;
44228;SDS011;29904;51.058;5.378;2022-12-10T00:26:05;43.80;;;21.90;;
44228;SDS011;29904;51.058;5.378;2022-12-10T00:28:41;42.38;;;21.83;;
44228;SDS011;29904;51.058;5.378;2022-12-10T00:31:11;40.20;;;21.67;;
44228;SDS011;29904;51.058;5.378;2022-12-10T00:33:38;39.90;;;21.10;;
44228;SDS011;29904;51.058;5.378;2022-12-10T00:36:06;42.87;;;21.63;;
44228;SDS011;29904;51.058;5.378;2022-12-10T00:38:34;40.35;;;21.25;;
44228;SDS011;29904;51.058;5.378;2022-12-10T00:41:00;38.72;;;20.67;;
44228;SDS011;29904;51.058;5.378;2022-12-10T00:43:26;43.80;;;22.08;;
44228;SDS011;29904;51.058;5.378;2022-12-10T00:45:52;42.63;;;21.00;;
44228;SDS011;29904;51.058;5.378;2022-12-10T00:48:18;42.47;;;22.17;;
44228;SDS011;29904;51.058;5.378;2022-12-10T00:50:53;54.95;;;27.08;;
44228;SDS011;29904;51.058;5.378;2022-12-10T00:53:27;44.93;;;23.40;;
44228;SDS011;29904;51.058;5.378;2022-12-10T00:55:54;47.95;;;23.00;;
44228;SDS011;29904;51.058;5.378;2022-12-10T00:58:23;44.03;;;21.38;;
44228;SDS011;29904;51.058;5.378;2022-12-10T01:00:51;43.38;;;21.45;;
44228;SDS011;29904;51.058;5.378;2022-12-10T01:03:17;43.47;;;21.63;;
44228;SDS011;29904;51.058;5.378;2022-12-10T01:05:42;45.03;;;22.60;;
44228;SDS011;29904;51.058;5.378;2022-12-10T01:08:08;46.42;;;23.17;;
44228;SDS011;29904;51.058;5.378;2022-12-10T01:10:34;42.15;;;21.20;;
44228;SDS011;29904;51.058;5.378;2022-12-10T01:13:00;40.40;;;21.23;;
44228;SDS011;29904;51.058;5.378;2022-12-10T01:15:26;45.15;;;22.63;;
44228;SDS011;29904;51.058;5.378;2022-12-10T01:17:51;47.08;;;22.75;;
44228;SDS011;29904;51.058;5.378;2022-12-10T01:20:17;47.87;;;22.90;;
44228;SDS011;29904;51.058;5.378;2022-12-10T01:22:43;50.13;;;23.43;;
44228;SDS011;29904;51.058;5.378;2022-12-10T01:25:08;47.50;;;23.38;;
44228;SDS011;29904;51.058;5.378;2022-12-10T01:27:34;46.05;;;21.85;;
44228;SDS011;29904;51.058;5.378;2022-12-10T01:30:00;46.47;;;23.03;;
44228;SDS011;29904;51.058;5.378;2022-12-10T01:32:26;49.03;;;24.20;;
44228;SDS011;29904;51.058;5.378;2022-12-10T01:34:52;46.50;;;23.77;;
44228;SDS011;29904;51.058;5.378;2022-12-10T01:37:17;50.20;;;23.98;;
44228;SDS011;29904;51.058;5.378;2022-12-10T01:39:43;46.83;;;23.13;;
44228;SDS011;29904;51.058;5.378;2022-12-10T01:42:12;44.22;;;22.00;;
44228;SDS011;29904;51.058;5.378;2022-12-10T01:47:07;42.03;;;21.60;;
44228;SDS011;29904;51.058;5.378;2022-12-10T01:49:36;41.08;;;20.17;;
44228;SDS011;29904;51.058;5.378;2022-12-10T01:52:05;41.92;;;21.45;;
44228;SDS011;29904;51.058;5.378;2022-12-10T01:54:33;42.70;;;21.15;;
44228;SDS011;29904;51.058;5.378;2022-12-10T01:57:03;42.15;;;21.23;;
44228;SDS011;29904;51.058;5.378;2022-12-10T01:59:31;44.55;;;22.08;;
44228;SDS011;29904;51.058;5.378;2022-12-10T02:02:01;42.90;;;21.25;;
44228;SDS011;29904;51.058;5.378;2022-12-10T02:13:17;41.30;;;21.13;;
44228;SDS011;29904;51.058;5.378;2022-12-10T02:21:11;44.83;;;21.63;;
44228;SDS011;29904;51.058;5.378;2022-12-10T02:23:43;40.53;;;21.48;;
44228;SDS011;29904;51.058;5.378;2022-12-10T02:31:38;43.40;;;21.50;;
44228;SDS011;29904;51.058;5.378;2022-12-10T02:34:07;39.80;;;21.27;;
44228;SDS011;29904;51.058;5.378;2022-12-10T02:36:34;41.80;;;21.65;;
44228;SDS011;29904;51.058;5.378;2022-12-10T02:39:04;46.53;;;23.33;;
44228;SDS011;29904;51.058;5.378;2022-12-10T02:41:35;45.70;;;22.88;;
44228;SDS011;29904;51.058;5.378;2022-12-10T02:44:07;41.90;;;22.08;;
44228;SDS011;29904;51.058;5.378;2022-12-10T02:46:36;41.40;;;21.83;;
44228;SDS011;29904;51.058;5.378;2022-12-10T02:49:03;43.53;;;21.80;;
44228;SDS011;29904;51.058;5.378;2022-12-10T02:51:31;42.97;;;21.92;;
44228;SDS011;29904;51.058;5.378;2022-12-10T02:54:00;43.50;;;22.70;;
44228;SDS011;29904;51.058;5.378;2022-12-10T02:56:42;46.85;;;23.25;;
44228;SDS011;29904;51.058;5.378;2022-12-10T02:59:33;41.92;;;21.17;;
44228;SDS011;29904;51.058;5.378;2022-12-10T03:02:13;44.92;;;23.15;;
44228;SDS011;29904;51.058;5.378;2022-12-10T03:07:25;47.90;;;23.35;;
44228;SDS011;29904;51.058;5.378;2022-12-10T03:10:02;45.70;;;22.95;;
44228;SDS011;29904;51.058;5.378;2022-12-10T03:12:41;46.80;;;23.03;;
44228;SDS011;29904;51.058;5.378;2022-12-10T03:15:16;42.97;;;21.83;;
44228;SDS011;29904;51.058;5.378;2022-12-10T03:17:44;49.30;;;22.60;;
44228;SDS011;29904;51.058;5.378;2022-12-10T03:20:12;48.08;;;22.50;;
44228;SDS011;29904;51.058;5.378;2022-12-10T03:22:42;43.65;;;21.48;;
44228;SDS011;29904;51.058;5.378;2022-12-10T03:25:12;44.20;;;21.17;;
44228;SDS011;29904;51.058;5.378;2022-12-10T03:27:40;50.03;;;23.42;;
44228;SDS011;29904;51.058;5.378;2022-12-10T03:30:07;43.28;;;21.15;;
44228;SDS011;29904;51.058;5.378;2022-12-10T03:32:33;48.42;;;23.55;;
44228;SDS011;29904;51.058;5.378;2022-12-10T03:34:59;47.40;;;23.52;;
44228;SDS011;29904;51.058;5.378;2022-12-10T03:37:27;49.38;;;22.70;;
44228;SDS011;29904;51.058;5.378;2022-12-10T03:39:54;49.88;;;23.27;;
44228;SDS011;29904;51.058;5.378;2022-12-10T03:42:23;46.75;;;23.30;;
44228;SDS011;29904;51.058;5.378;2022-12-10T03:44:49;49.22;;;22.45;;
44228;SDS011;29904;51.058;5.378;2022-12-10T03:47:16;45.47;;;21.85;;
44228;SDS011;29904;51.058;5.378;2022-12-10T03:49:43;46.75;;;22.23;;
44228;SDS011;29904;51.058;5.378;2022-12-10T03:52:09;43.05;;;21.50;;
44228;SDS011;29904;51.058;5.378;2022-12-10T03:54:35;45.78;;;22.30;;
44228;SDS011;29904;51.058;5.378;2022-12-10T03:57:03;48.25;;;23.08;;
44228;SDS011;29904;51.058;5.378;2022-12-10T03:59:28;49.73;;;22.97;;
44228;SDS011;29904;51.058;5.378;2022-12-10T04:01:54;48.85;;;22.77;;
44228;SDS011;29904;51.058;5.378;2022-12-10T04:04:20;45.92;;;21.45;;
44228;SDS011;29904;51.058;5.378;2022-12-10T04:06:46;44.08;;;21.65;;
44228;SDS011;29904;51.058;5.378;2022-12-10T04:09:12;46.27;;;22.43;;
44228;SDS011;29904;51.058;5.378;2022-12-10T04:11:40;45.03;;;22.57;;
44228;SDS011;29904;51.058;5.378;2022-12-10T04:14:07;43.00;;;21.02;;
44228;SDS011;29904;51.058;5.378;2022-12-10T04:16:53;41.47;;;20.83;;
44228;SDS011;29904;51.058;5.378;2022-12-10T04:19:19;46.63;;;21.40;;
44228;SDS011;29904;51.058;5.378;2022-12-10T04:21:45;44.33;;;21.20;;
44228;SDS011;29904;51.058;5.378;2022-12-10T04:24:30;42.63;;;20.55;;
44228;SDS011;29904;51.058;5.378;2022-12-10T04:29:45;47.08;;;22.27;;
44228;SDS011;29904;51.058;5.378;2022-12-10T04:32:11;46.35;;;21.27;;
44228;SDS011;29904;51.058;5.378;2022-12-10T04:34:36;52.63;;;24.10;;
44228;SDS011;29904;51.058;5.378;2022-12-10T04:37:02;54.80;;;25.00;;
44228;SDS011;29904;51.058;5.378;2022-12-10T04:39:29;53.97;;;24.00;;
44228;SDS011;29904;51.058;5.378;2022-12-10T04:41:55;48.22;;;22.38;;
44228;SDS011;29904;51.058;5.378;2022-12-10T04:44:21;53.47;;;24.30;;
44228;SDS011;29904;51.058;5.378;2022-12-10T04:46:47;48.60;;;22.42;;
44228;SDS011;29904;51.058;5.378;2022-12-10T04:49:13;52.15;;;22.73;;
44228;SDS011;29904;51.058;5.378;2022-12-10T04:51:40;55.33;;;23.42;;
44228;SDS011;29904;51.058;5.378;2022-12-10T04:54:06;49.72;;;23.02;;
44228;SDS011;29904;51.058;5.378;2022-12-10T04:56:33;49.30;;;22.92;;
44228;SDS011;29904;51.058;5.378;2022-12-10T04:58:59;46.53;;;21.77;;
44228;SDS011;29904;51.058;5.378;2022-12-10T05:01:25;51.25;;;22.95;;
44228;SDS011;29904;51.058;5.378;2022-12-10T05:03:51;48.15;;;22.35;;
44228;SDS011;29904;51.058;5.378;2022-12-10T05:06:19;48.63;;;22.80;;
44228;SDS011;29904;51.058;5.378;2022-12-10T05:08:46;55.65;;;23.80;;
44228;SDS011;29904;51.058;5.378;2022-12-10T05:11:13;48.08;;;22.33;;
44228;SDS011;29904;51.058;5.378;2022-12-10T05:13:42;46.65;;;21.40;;
44228;SDS011;29904;51.058;5.378;2022-12-10T05:16:08;47.88;;;22.40;;
44228;SDS011;29904;51.058;5.378;2022-12-10T05:18:36;50.47;;;22.40;;
44228;SDS011;29904;51.058;5.378;2022-12-10T05:21:02;47.78;;;21.75;;
44228;SDS011;29904;51.058;5.378;2022-12-10T05:23:30;45.42;;;20.83;;
44228;SDS011;29904;51.058;5.378;2022-12-10T05:28:33;46.47;;;21.48;;
44228;SDS011;29904;51.058;5.378;2022-12-10T05:31:00;49.17;;;22.00;;
44228;SDS011;29904;51.058;5.378;2022-12-10T05:33:26;47.25;;;21.70;;
44228;SDS011;29904;51.058;5.378;2022-12-10T05:35:53;51.05;;;22.42;;
44228;SDS011;29904;51.058;5.378;2022-12-10T05:38:27;45.85;;;21.38;;
44228;SDS011;29904;51.058;5.378;2022-12-10T05:40:54;48.88;;;21.77;;
44228;SDS011;29904;51.058;5.378;2022-12-10T05:43:20;47.13;;;21.75;;
44228;SDS011;29904;51.058;5.378;2022-12-10T05:45:48;45.58;;;21.00;;
44228;SDS011;29904;51.058;5.378;2022-12-10T05:48:15;45.63;;;21.40;;
44228;SDS011;29904;51.058;5.378;2022-12-10T05:50:41;49.38;;;21.35;;
44228;SDS011;29904;51.058;5.378;2022-12-10T05:53:09;39.20;;;19.17;;
44228;SDS011;29904;51.058;5.378;2022-12-10T05:55:35;41.45;;;19.77;;
44228;SDS011;29904;51.058;5.378;2022-12-10T05:58:00;44.03;;;20.13;;
44228;SDS011;29904;51.058;5.378;2022-12-10T06:00:27;43.13;;;20.57;;
44228;SDS011;29904;51.058;5.378;2022-12-10T06:02:53;44.95;;;20.13;;
44228;SDS011;29904;51.058;5.378;2022-12-10T06:05:19;45.13;;;19.38;;
44228;SDS011;29904;51.058;5.378;2022-12-10T06:07:47;43.80;;;19.90;;
44228;SDS011;29904;51.058;5.378;2022-12-10T06:10:13;45.08;;;20.40;;
44228;SDS011;29904;51.058;5.378;2022-12-10T06:12:38;46.45;;;20.35;;
44228;SDS011;29904;51.058;5.378;2022-12-10T06:15:05;40.00;;;19.53;;
44228;SDS011;29904;51.058;5.378;2022-12-10T06:17:31;43.03;;;19.67;;
44228;SDS011;29904;51.058;5.378;2022-12-10T06:19:57;46.53;;;20.63;;
44228;SDS011;29904;51.058;5.378;2022-12-10T06:22:23;49.85;;;22.38;;
44228;SDS011;29904;51.058;5.378;2022-12-10T06:24:48;46.60;;;21.30;;
44228;SDS011;29904;51.058;5.378;2022-12-10T06:27:14;46.88;;;21.45;;
44228;SDS011;29904;51.058;5.378;2022-12-10T06:29:42;46.25;;;20.73;;
44228;SDS011;29904;51.058;5.378;2022-12-10T06:32:09;47.22;;;20.05;;
44228;SDS011;29904;51.058;5.378;2022-12-10T06:34:34;40.43;;;18.43;;
44228;SDS011;29904;51.058;5.378;2022-12-10T06:37:00;46.58;;;20.88;;
44228;SDS011;29904;51.058;5.378;2022-12-10T06:39:26;46.70;;;20.95;;
44228;SDS011;29904;51.058;5.378;2022-12-10T06:41:51;43.03;;;19.80;;
44228;SDS011;29904;51.058;5.378;2022-12-10T06:44:17;43.20;;;19.10;;
44228;SDS011;29904;51.058;5.378;2022-12-10T06:46:43;44.00;;;19.58;;
44228;SDS011;29904;51.058;5.378;2022-12-10T06:49:09;45.25;;;20.50;;
44228;SDS011;29904;51.058;5.378;2022-12-10T06:51:35;40.63;;;19.37;;
44228;SDS011;29904;51.058;5.378;2022-12-10T06:54:03;43.75;;;19.88;;
44228;SDS011;29904;51.058;5.378;2022-12-10T06:56:29;42.72;;;19.83;;
44228;SDS011;29904;51.058;5.378;2022-12-10T06:58:56;43.30;;;19.98;;
44228;SDS011;29904;51.058;5.378;2022-12-10T07:01:22;46.00;;;20.73;;
44228;SDS011;29904;51.058;5.378;2022-12-10T07:03:52;45.38;;;20.52;;
44228;SDS011;29904;51.058;5.378;2022-12-10T07:06:20;47.35;;;20.98;;
44228;SDS011;29904;51.058;5.378;2022-12-10T07:08:47;44.17;;;20.38;;
44228;SDS011;29904;51.058;5.378;2022-12-10T07:11:14;45.22;;;19.98;;
44228;SDS011;29904;51.058;5.378;2022-12-10T07:13:41;46.63;;;21.38;;
44228;SDS011;29904;51.058;5.378;2022-12-10T07:16:14;45.78;;;20.95;;
44228;SDS011;29904;51.058;5.378;2022-12-10T07:18:41;47.78;;;20.92;;
44228;SDS011;29904;51.058;5.378;2022-12-10T07:21:17;45.03;;;21.00;;
44228;SDS011;29904;51.058;5.378;2022-12-10T07:23:49;45.78;;;21.02;;
44228;SDS011;29904;51.058;5.378;2022-12-10T07:26:16;46.70;;;21.10;;
44228;SDS011;29904;51.058;5.378;2022-12-10T07:28:42;41.58;;;18.92;;
44228;SDS011;29904;51.058;5.378;2022-12-10T07:31:08;46.95;;;20.58;;
44228;SDS011;29904;51.058;5.378;2022-12-10T07:33:35;46.75;;;20.75;;
44228;SDS011;29904;51.058;5.378;2022-12-10T07:36:08;46.00;;;21.17;;
44228;SDS011;29904;51.058;5.378;2022-12-10T07:38:35;47.65;;;20.42;;
44228;SDS011;29904;51.058;5.378;2022-12-10T07:41:05;46.75;;;19.80;;
44228;SDS011;29904;51.058;5.378;2022-12-10T07:43:33;49.20;;;21.98;;
44228;SDS011;29904;51.058;5.378;2022-12-10T07:46:13;48.17;;;21.65;;
44228;SDS011;29904;51.058;5.378;2022-12-10T07:48:42;48.60;;;22.13;;
44228;SDS011;29904;51.058;5.378;2022-12-10T07:51:09;46.13;;;20.55;;
44228;SDS011;29904;51.058;5.378;2022-12-10T07:53:35;49.50;;;21.65;;
44228;SDS011;29904;51.058;5.378;2022-12-10T07:56:02;52.65;;;23.30;;
44228;SDS011;29904;51.058;5.378;2022-12-10T07:58:28;51.23;;;22.80;;
44228;SDS011;29904;51.058;5.378;2022-12-10T08:00:54;46.80;;;21.27;;
44228;SDS011;29904;51.058;5.378;2022-12-10T08:03:20;54.70;;;23.33;;
44228;SDS011;29904;51.058;5.378;2022-12-10T08:05:46;56.05;;;23.80;;
44228;SDS011;29904;51.058;5.378;2022-12-10T08:08:12;50.35;;;21.75;;
44228;SDS011;29904;51.058;5.378;2022-12-10T08:10:38;51.33;;;21.73;;
44228;SDS011;29904;51.058;5.378;2022-12-10T08:13:05;56.40;;;22.70;;
44228;SDS011;29904;51.058;5.378;2022-12-10T08:15:32;54.00;;;21.77;;
44228;SDS011;29904;51.058;5.378;2022-12-10T08:17:58;50.17;;;21.92;;
44228;SDS011;29904;51.058;5.378;2022-12-10T08:20:24;50.93;;;20.90;;
44228;SDS011;29904;51.058;5.378;2022-12-10T08:22:50;55.60;;;22.02;;
44228;SDS011;29904;51.058;5.378;2022-12-10T08:25:16;49.10;;;21.85;;
44228;SDS011;29904;51.058;5.378;2022-12-10T08:27:42;54.83;;;22.00;;
44228;SDS011;29904;51.058;5.378;2022-12-10T08:30:08;52.57;;;21.43;;
44228;SDS011;29904;51.058;5.378;2022-12-10T08:32:34;55.35;;;23.02;;
44228;SDS011;29904;51.058;5.378;2022-12-10T08:35:00;52.22;;;21.75;;
44228;SDS011;29904;51.058;5.378;2022-12-10T08:37:27;50.10;;;20.92;;
44228;SDS011;29904;51.058;5.378;2022-12-10T08:39:53;45.58;;;20.85;;
44228;SDS011;29904;51.058;5.378;2022-12-10T08:42:19;53.38;;;23.17;;
44228;SDS011;29904;51.058;5.378;2022-12-10T08:44:44;55.63;;;22.17;;
44228;SDS011;29904;51.058;5.378;2022-12-10T08:47:12;47.85;;;21.58;;
44228;SDS011;29904;51.058;5.378;2022-12-10T08:49:38;52.90;;;21.13;;
44228;SDS011;29904;51.058;5.378;2022-12-10T08:52:03;47.13;;;21.53;;
44228;SDS011;29904;51.058;5.378;2022-12-10T08:54:29;50.03;;;21.13;;
44228;SDS011;29904;51.058;5.378;2022-12-10T08:56:55;48.78;;;21.73;;
44228;SDS011;29904;51.058;5.378;2022-12-10T08:59:20;44.80;;;20.92;;
44228;SDS011;29904;51.058;5.378;2022-12-10T09:01:46;49.05;;;20.80;;
44228;SDS011;29904;51.058;5.378;2022-12-10T09:04:12;48.07;;;21.30;;
44228;SDS011;29904;51.058;5.378;2022-12-10T09:06:40;49.92;;;22.50;;
44228;SDS011;29904;51.058;5.378;2022-12-10T09:09:06;51.63;;;23.75;;
44228;SDS011;29904;51.058;5.378;2022-12-10T09:11:33;48.78;;;22.60;;
44228;SDS011;29904;51.058;5.378;2022-12-10T09:14:00;55.77;;;24.27;;
44228;SDS011;29904;51.058;5.378;2022-12-10T09:16:30;50.20;;;22.90;;
44228;SDS011;29904;51.058;5.378;2022-12-10T09:18:57;48.60;;;22.90;;
44228;SDS011;29904;51.058;5.378;2022-12-10T09:21:26;51.55;;;22.45;;
44228;SDS011;29904;51.058;5.378;2022-12-10T09:23:52;49.00;;;21.75;;
44228;SDS011;29904;51.058;5.378;2022-12-10T09:26:18;51.50;;;24.20;;
44228;SDS011;29904;51.058;5.378;2022-12-10T09:28:45;51.20;;;24.17;;
44228;SDS011;29904;51.058;5.378;2022-12-10T09:31:12;52.72;;;23.88;;
44228;SDS011;29904;51.058;5.378;2022-12-10T09:33:41;50.65;;;22.77;;
44228;SDS011;29904;51.058;5.378;2022-12-10T09:36:08;53.97;;;23.45;;
44228;SDS011;29904;51.058;5.378;2022-12-10T09:38:40;54.47;;;23.80;;
44228;SDS011;29904;51.058;5.378;2022-12-10T09:46:51;50.85;;;22.77;;
44228;SDS011;29904;51.058;5.378;2022-12-10T09:52:13;45.90;;;20.58;;
44228;SDS011;29904;51.058;5.378;2022-12-10T09:54:49;44.17;;;21.03;;
44228;SDS011;29904;51.058;5.378;2022-12-10T09:57:38;47.70;;;21.05;;
44228;SDS011;29904;51.058;5.378;2022-12-10T10:02:48;43.35;;;19.60;;
44228;SDS011;29904;51.058;5.378;2022-12-10T10:05:20;47.30;;;21.20;;
44228;SDS011;29904;51.058;5.378;2022-12-10T10:10:46;52.65;;;22.85;;
44228;SDS011;29904;51.058;5.378;2022-12-10T10:16:18;49.47;;;23.10;;
44228;SDS011;29904;51.058;5.378;2022-12-10T10:19:17;52.10;;;22.55;;
44228;SDS011;29904;51.058;5.378;2022-12-10T10:21:47;52.60;;;22.60;;
44228;SDS011;29904;51.058;5.378;2022-12-10T10:24:19;50.17;;;22.42;;
44228;SDS011;29904;51.058;5.378;2022-12-10T10:26:56;51.55;;;22.88;;
44228;SDS011;29904;51.058;5.378;2022-12-10T10:29:26;52.60;;;22.43;;
44228;SDS011;29904;51.058;5.378;2022-12-10T10:32:10;53.28;;;23.08;;
44228;SDS011;29904;51.058;5.378;2022-12-10T10:34:39;50.65;;;22.42;;
44228;SDS011;29904;51.058;5.378;2022-12-10T10:37:11;44.90;;;20.05;;
44228;SDS011;29904;51.058;5.378;2022-12-10T10:39:48;45.45;;;20.13;;
44228;SDS011;29904;51.058;5.378;2022-12-10T10:42:21;46.95;;;20.23;;
44228;SDS011;29904;51.058;5.378;2022-12-10T10:44:53;45.10;;;19.90;;
44228;SDS011;29904;51.058;5.378;2022-12-10T10:47:27;43.60;;;19.40;;
44228;SDS011;29904;51.058;5.378;2022-12-10T10:49:55;46.63;;;20.42;;
44228;SDS011;29904;51.058;5.378;2022-12-10T10:52:21;48.45;;;20.73;;
44228;SDS011;29904;51.058;5.378;2022-12-10T10:54:47;44.30;;;20.02;;
44228;SDS011;29904;51.058;5.378;2022-12-10T10:59:48;45.13;;;19.75;;
44228;SDS011;29904;51.058;5.378;2022-12-10T11:04:50;46.00;;;20.58;;
44228;SDS011;29904;51.058;5.378;2022-12-10T11:07:22;48.53;;;20.58;;
44228;SDS011;29904;51.058;5.378;2022-12-10T11:09:58;52.78;;;21.50;;
44228;SDS011;29904;51.058;5.378;2022-12-10T11:14:57;51.78;;;21.35;;
44228;SDS011;29904;51.058;5.378;2022-12-10T11:17:24;49.78;;;20.95;;
44228;SDS011;29904;51.058;5.378;2022-12-10T11:20:01;49.55;;;19.70;;
44228;SDS011;29904;51.058;5.378;2022-12-10T11:22:48;55.72;;;21.20;;
44228;SDS011;29904;51.058;5.378;2022-12-10T11:28:23;58.05;;;21.83;;
44228;SDS011;29904;51.058;5.378;2022-12-10T11:30:58;51.83;;;20.63;;
44228;SDS011;29904;51.058;5.378;2022-12-10T11:41:54;52.78;;;21.00;;
44228;SDS011;29904;51.058;5.378;2022-12-10T12:00:52;48.73;;;19.80;;
44228;SDS011;29904;51.058;5.378;2022-12-10T12:03:29;51.60;;;20.95;;
44228;SDS011;29904;51.058;5.378;2022-12-10T12:06:38;53.20;;;21.38;;
44228;SDS011;29904;51.058;5.378;2022-12-10T12:09:21;60.17;;;21.67;;
44228;SDS011;29904;51.058;5.378;2022-12-10T12:11:55;59.55;;;21.25;;
44228;SDS011;29904;51.058;5.378;2022-12-10T12:14:41;55.90;;;21.00;;
44228;SDS011;29904;51.058;5.378;2022-12-10T12:17:45;56.53;;;21.07;;
44228;SDS011;29904;51.058;5.378;2022-12-10T12:22:38;52.78;;;20.10;;
44228;SDS011;29904;51.058;5.378;2022-12-10T12:25:15;53.35;;;20.98;;
44228;SDS011;29904;51.058;5.378;2022-12-10T12:27:46;51.25;;;18.90;;
44228;SDS011;29904;51.058;5.378;2022-12-10T12:30:28;50.92;;;18.92;;
44228;SDS011;29904;51.058;5.378;2022-12-10T12:33:08;47.10;;;18.33;;
44228;SDS011;29904;51.058;5.378;2022-12-10T12:35:46;51.70;;;19.90;;
44228;SDS011;29904;51.058;5.378;2022-12-10T12:38:21;48.63;;;18.98;;
44228;SDS011;29904;51.058;5.378;2022-12-10T12:46:44;61.05;;;22.55;;
44228;SDS011;29904;51.058;5.378;2022-12-10T12:51:54;57.63;;;22.07;;
44228;SDS011;29904;51.058;5.378;2022-12-10T12:54:45;56.92;;;21.48;;
44228;SDS011;29904;51.058;5.378;2022-12-10T12:57:28;61.65;;;22.00;;
44228;SDS011;29904;51.058;5.378;2022-12-10T13:02:52;56.42;;;21.88;;
44228;SDS011;29904;51.058;5.378;2022-12-10T13:05:28;60.33;;;21.50;;
44228;SDS011;29904;51.058;5.378;2022-12-10T13:11:33;49.42;;;19.50;;
44228;SDS011;29904;51.058;5.378;2022-12-10T13:24:21;42.80;;;18.03;;
44228;SDS011;29904;51.058;5.378;2022-12-10T13:32:21;43.92;;;17.23;;
44228;SDS011;29904;51.058;5.378;2022-12-10T13:43:48;46.33;;;18.70;;
44228;SDS011;29904;51.058;5.378;2022-12-10T13:48:54;45.88;;;18.27;;
44228;SDS011;29904;51.058;5.378;2022-12-10T13:51:24;46.72;;;18.15;;
44228;SDS011;29904;51.058;5.378;2022-12-10T13:54:00;45.17;;;17.97;;
44228;SDS011;29904;51.058;5.378;2022-12-10T13:56:41;47.93;;;18.33;;
44228;SDS011;29904;51.058;5.378;2022-12-10T14:02:32;47.42;;;17.73;;
44228;SDS011;29904;51.058;5.378;2022-12-10T14:07:48;44.70;;;17.27;;
44228;SDS011;29904;51.058;5.378;2022-12-10T14:10:18;43.83;;;17.60;;
44228;SDS011;29904;51.058;5.378;2022-12-10T14:12:46;48.30;;;19.08;;
44228;SDS011;29904;51.058;5.378;2022-12-10T14:15:16;43.08;;;18.58;;
44228;SDS011;29904;51.058;5.378;2022-12-10T14:17:48;48.53;;;18.85;;
44228;SDS011;29904;51.058;5.378;2022-12-10T14:20:18;44.97;;;18.13;;
44228;SDS011;29904;51.058;5.378;2022-12-10T14:22:51;48.03;;;18.25;;
44228;SDS011;29904;51.058;5.378;2022-12-10T14:25:42;43.70;;;17.92;;
44228;SDS011;29904;51.058;5.378;2022-12-10T14:28:13;43.75;;;18.50;;
44228;SDS011;29904;51.058;5.378;2022-12-10T14:30:42;45.60;;;16.83;;
44228;SDS011;29904;51.058;5.378;2022-12-10T14:33:09;41.15;;;17.13;;
44228;SDS011;29904;51.058;5.378;2022-12-10T14:35:40;41.17;;;16.95;;
44228;SDS011;29904;51.058;5.378;2022-12-10T14:38:12;41.55;;;17.30;;
44228;SDS011;29904;51.058;5.378;2022-12-10T14:40:46;41.73;;;16.63;;
44228;SDS011;29904;51.058;5.378;2022-12-10T14:43:14;41.47;;;17.42;;
44228;SDS011;29904;51.058;5.378;2022-12-10T14:48:14;43.65;;;16.73;;
44228;SDS011;29904;51.058;5.378;2022-12-10T14:50:41;52.67;;;19.15;;
44228;SDS011;29904;51.058;5.378;2022-12-10T14:53:18;43.10;;;17.15;;
44228;SDS011;29904;51.058;5.378;2022-12-10T14:55:48;41.72;;;17.75;;
44228;SDS011;29904;51.058;5.378;2022-12-10T14:58:27;41.38;;;17.45;;
44228;SDS011;29904;51.058;5.378;2022-12-10T15:00:59;36.28;;;15.68;;
44228;SDS011;29904;51.058;5.378;2022-12-10T15:03:32;40.40;;;17.10;;
44228;SDS011;29904;51.058;5.378;2022-12-10T15:06:05;41.30;;;17.05;;
44228;SDS011;29904;51.058;5.378;2022-12-10T15:08:33;35.43;;;15.93;;
44228;SDS011;29904;51.058;5.378;2022-12-10T15:10:59;42.10;;;16.38;;
44228;SDS011;29904;51.058;5.378;2022-12-10T15:13:39;40.22;;;17.25;;
44228;SDS011;29904;51.058;5.378;2022-12-10T15:19:07;41.72;;;17.05;;
44228;SDS011;29904;51.058;5.378;2022-12-10T15:21:41;41.05;;;16.88;;
44228;SDS011;29904;51.058;5.378;2022-12-10T15:24:15;40.10;;;16.85;;
44228;SDS011;29904;51.058;5.378;2022-12-10T15:26:52;40.78;;;16.48;;
44228;SDS011;29904;51.058;5.378;2022-12-10T15:31:54;36.80;;;15.95;;
44228;SDS011;29904;51.058;5.378;2022-12-10T15:34:21;40.35;;;17.17;;
44228;SDS011;29904;51.058;5.378;2022-12-10T15:36:51;39.90;;;16.30;;
44228;SDS011;29904;51.058;5.378;2022-12-10T15:39:26;34.67;;;15.25;;
44228;SDS011;29904;51.058;5.378;2022-12-10T15:41:59;42.53;;;16.52;;
44228;SDS011;29904;51.058;5.378;2022-12-10T15:44:27;40.65;;;16.30;;
44228;SDS011;29904;51.058;5.378;2022-12-10T15:47:25;41.10;;;17.63;;
44228;SDS011;29904;51.058;5.378;2022-12-10T15:49:53;36.22;;;15.82;;
44228;SDS011;29904;51.058;5.378;2022-12-10T15:52:22;45.50;;;17.38;;
44228;SDS011;29904;51.058;5.378;2022-12-10T15:54:53;42.47;;;18.10;;
44228;SDS011;29904;51.058;5.378;2022-12-10T15:59:58;40.90;;;16.73;;
44228;SDS011;29904;51.058;5.378;2022-12-10T16:02:36;39.90;;;17.77;;
44228;SDS011;29904;51.058;5.378;2022-12-10T16:05:04;42.17;;;17.73;;
44228;SDS011;29904;51.058;5.378;2022-12-10T16:07:35;40.97;;;18.50;;
44228;SDS011;29904;51.058;5.378;2022-12-10T16:10:03;41.75;;;18.20;;
44228;SDS011;29904;51.058;5.378;2022-12-10T16:12:30;42.35;;;17.95;;
44228;SDS011;29904;51.058;5.378;2022-12-10T16:14:59;47.65;;;19.65;;
44228;SDS011;29904;51.058;5.378;2022-12-10T16:17:28;50.55;;;21.17;;
44228;SDS011;29904;51.058;5.378;2022-12-10T16:19:56;44.88;;;18.55;;
44228;SDS011;29904;51.058;5.378;2022-12-10T16:22:38;42.40;;;18.03;;
44228;SDS011;29904;51.058;5.378;2022-12-10T16:25:06;40.60;;;17.52;;
44228;SDS011;29904;51.058;5.378;2022-12-10T16:27:32;42.90;;;18.02;;
44228;SDS011;29904;51.058;5.378;2022-12-10T16:30:01;45.45;;;19.00;;
44228;SDS011;29904;51.058;5.378;2022-12-10T16:32:36;46.33;;;19.33;;
44228;SDS011;29904;51.058;5.378;2022-12-10T16:35:01;44.03;;;18.42;;
44228;SDS011;29904;51.058;5.378;2022-12-10T16:37:27;46.60;;;18.83;;
44228;SDS011;29904;51.058;5.378;2022-12-10T16:39:53;48.03;;;18.98;;
44228;SDS011;29904;51.058;5.378;2022-12-10T16:42:19;47.75;;;20.23;;
44228;SDS011;29904;51.058;5.378;2022-12-10T16:44:45;45.13;;;18.80;;
44228;SDS011;29904;51.058;5.378;2022-12-10T16:47:11;48.30;;;20.17;;
44228;SDS011;29904;51.058;5.378;2022-12-10T16:49:37;46.25;;;19.58;;
44228;SDS011;29904;51.058;5.378;2022-12-10T16:52:03;48.80;;;20.10;;
44228;SDS011;29904;51.058;5.378;2022-12-10T16:54:29;43.42;;;18.73;;
44228;SDS011;29904;51.058;5.378;2022-12-10T16:56:55;41.85;;;18.17;;
44228;SDS011;29904;51.058;5.378;2022-12-10T16:59:21;42.03;;;18.23;;